Time;durP1;ratioP1;P1;durP2;ratioP2;P2;SDS_P1;SDS_P2;PMS_P1;PMS_P2;Temp;Humidity;BMP_temperature;BMP_pressure;BME280_temperature;BME280_humidity;BME280_pressure;Samples;Min_cycle;Max_cycle;Signal;HPM_P1;HPM_P2
2022/05/10 00:00:08;;;;;;;;;38.00;32.50;;;;;21.06;44.49;101710.34;5037256;28;45604;-75
2022/05/10 00:02:34;;;;;;;;;35.25;29.75;;;;;21.04;44.39;101712.22;5037287;28;45498;-74
2022/05/10 00:05:00;;;;;;;;;34.75;31.50;;;;;21.03;44.32;101710.50;5039503;28;45610;-74
2022/05/10 00:07:30;;;;;;;;;27.50;23.50;;;;;21.00;44.53;101718.59;5038066;28;45712;-72
2022/05/10 00:09:56;;;;;;;;;40.75;34.00;;;;;20.95;45.17;101704.78;5043601;28;45300;-74
2022/05/10 00:12:21;;;;;;;;;37.00;31.25;;;;;20.91;45.27;101706.75;5039733;28;45393;-73
2022/05/10 00:14:49;;;;;;;;;34.50;31.50;;;;;20.87;45.92;101714.94;5038960;28;45462;-74
2022/05/10 00:17:26;;;;;;;;;32.50;29.75;;;;;20.77;46.43;101705.78;5037600;28;45460;-74
2022/05/10 00:19:52;;;;;;;;;32.75;29.50;;;;;20.70;46.57;101710.56;5036961;28;46285;-75
2022/05/10 00:22:17;;;;;;;;;40.25;28.00;;;;;20.65;46.27;101710.81;5037550;28;45691;-75
2022/05/10 00:24:43;;;;;;;;;38.75;31.25;;;;;20.62;46.60;101700.44;5039382;28;45346;-74
2022/05/10 00:27:08;;;;;;;;;34.00;30.00;;;;;20.59;47.03;101699.72;5039139;28;45495;-74
2022/05/10 00:29:34;;;;;;;;;34.25;29.25;;;;;20.57;46.85;101701.59;5039118;28;45475;-74
2022/05/10 00:31:59;;;;;;;;;31.50;29.00;;;;;20.53;47.03;101695.63;5036197;28;46134;-74
2022/05/10 00:34:28;;;;;;;;;33.75;29.25;;;;;20.51;47.06;101694.00;5038347;28;45446;-73
2022/05/10 00:36:54;;;;;;;;;33.25;31.00;;;;;20.50;47.24;101690.50;5037893;28;45423;-76
2022/05/10 00:39:20;;;;;;;;;34.50;29.00;;;;;20.49;47.64;101690.59;5038832;28;45377;-75
2022/05/10 00:41:54;;;;;;;;;33.00;30.50;;;;;20.47;47.62;101692.47;5039050;28;45277;-75
2022/05/10 00:44:25;;;;;;;;;33.50;30.00;;;;;20.43;47.86;101683.00;5038856;28;45341;-74
2022/05/10 00:47:06;;;;;;;;;33.00;29.50;;;;;20.42;47.63;101687.41;5039177;28;45245;-73
2022/05/10 00:49:54;;;;;;;;;34.00;29.75;;;;;20.40;47.93;101685.75;5039207;28;45653;-73
2022/05/10 00:52:51;;;;;;;;;31.75;29.50;;;;;20.36;48.17;101678.00;5018232;28;45769;-73
2022/05/10 00:55:28;;;;;;;;;37.25;31.00;;;;;20.33;47.91;101675.53;5042057;28;45311;-74
2022/05/10 00:58:08;;;;;;;;;30.75;25.75;;;;;20.30;48.32;101667.78;5042790;28;45185;-74
2022/05/10 01:00:34;;;;;;;;;31.25;29.00;;;;;20.28;48.30;101671.44;5042672;28;46620;-73
2022/05/10 01:03:18;;;;;;;;;36.25;29.75;;;;;20.26;48.19;101668.88;5042783;28;45256;-73
2022/05/10 01:06:10;;;;;;;;;31.25;29.00;;;;;20.22;48.95;101672.63;5042841;28;45514;-73
2022/05/10 01:08:38;;;;;;;;;32.75;30.00;;;;;20.17;48.68;101671.16;5030027;28;45261;-74
2022/05/10 01:11:29;;;;;;;;;28.75;26.50;;;;;20.13;48.73;101670.47;5047801;28;45380;-74
2022/05/10 01:14:09;;;;;;;;;36.00;30.75;;;;;20.09;49.21;101663.66;5040180;28;45866;-75
2022/05/10 01:16:35;;;;;;;;;37.00;30.00;;;;;20.02;49.05;101657.84;5042264;28;45216;-76
2022/05/10 01:19:00;;;;;;;;;36.00;30.25;;;;;20.00;49.41;101649.13;5042297;28;46054;-76
2022/05/10 01:21:53;;;;;;;;;33.00;30.50;;;;;19.98;49.72;101653.63;5041833;28;45233;-77
2022/05/10 01:25:07;;;;;;;;;33.75;28.75;;;;;19.94;49.47;101648.59;5041769;28;45760;-75
2022/05/10 01:28:08;;;;;;;;;35.75;28.75;;;;;19.91;49.72;101646.97;5032632;28;45240;-79
2022/05/10 01:30:34;;;;;;;;;31.25;28.75;;;;;19.89;49.64;101648.84;5041733;28;45235;-78
2022/05/10 01:35:56;;;;;;;;;32.50;29.00;;;;;19.88;50.21;101648.94;5040785;28;45879;-78
2022/05/10 01:38:32;;;;;;;;;34.50;30.75;;;;;19.87;50.05;101641.97;5039546;28;45549;-80
2022/05/10 01:41:09;;;;;;;;;32.75;29.75;;;;;19.84;50.22;101642.97;5039221;28;45658;-78
2022/05/10 01:43:59;;;;;;;;;32.50;30.50;;;;;19.83;50.42;101638.63;5038856;28;45407;-77
2022/05/10 01:46:29;;;;;;;;;39.50;32.00;;;;;19.80;50.40;101630.84;5030105;28;45744;-74
2022/05/10 01:49:19;;;;;;;;;30.25;28.75;;;;;19.79;50.37;101625.66;5039401;28;45488;-75
2022/05/10 01:51:53;;;;;;;;;28.25;25.00;;;;;19.78;50.75;101630.06;5032597;28;45397;-76
2022/05/10 01:54:54;;;;;;;;;29.75;27.00;;;;;19.76;50.87;101629.31;5039824;28;46421;-75
2022/05/10 01:57:19;;;;;;;;;30.00;28.00;;;;;19.73;51.13;101621.56;5014529;28;45464;-75
2022/05/10 01:59:50;;;;;;;;;34.00;30.50;;;;;19.72;50.66;101620.69;5037834;28;45299;-74
2022/05/10 02:02:20;;;;;;;;;35.00;30.00;;;;;19.72;51.13;101623.34;5039245;28;45401;-74
2022/05/10 02:04:50;;;;;;;;;33.75;30.00;;;;;19.72;51.12;101623.34;5038274;28;45634;-74
2022/05/10 02:07:20;;;;;;;;;38.25;32.00;;;;;19.73;51.45;101626.81;5038581;28;45364;-75
2022/05/10 02:09:45;;;;;;;;;33.00;30.00;;;;;19.75;51.19;101627.59;5047565;28;45414;-71
2022/05/10 02:12:19;;;;;;;;;34.67;30.00;;;;;19.74;51.14;101624.13;5041183;28;45245;-70
2022/05/10 02:14:47;;;;;;;;;32.75;29.75;;;;;19.71;51.23;101619.00;5041325;28;46387;-73
2022/05/10 02:17:22;;;;;;;;;30.50;28.00;;;;;19.70;51.16;101621.72;5041498;28;45373;-74
2022/05/10 02:19:57;;;;;;;;;32.75;30.00;;;;;19.70;51.47;101613.81;5040919;28;45412;-75
2022/05/10 02:22:59;;;;;;;;;32.75;30.25;;;;;19.66;51.99;101610.47;5039111;28;45313;-77
2022/05/10 02:25:29;;;;;;;;;34.50;31.25;;;;;19.68;51.86;101615.69;5030666;28;46545;-77
2022/05/10 02:28:17;;;;;;;;;28.25;28.00;;;;;19.68;51.61;101605.97;5041153;28;45822;-75
2022/05/10 02:30:44;;;;;;;;;31.00;29.25;;;;;19.70;51.89;101612.03;5033414;28;45434;-76
2022/05/10 02:33:13;;;;;;;;;33.25;30.00;;;;;19.70;51.79;101606.75;5041153;28;45537;-78
2022/05/10 02:35:54;;;;;;;;;35.25;28.00;;;;;19.70;51.92;101606.75;5041177;28;45434;-78
2022/05/10 02:38:36;;;;;;;;;32.75;30.25;;;;;19.71;52.49;101605.81;5040271;28;45423;-78
2022/05/10 02:41:07;;;;;;;;;30.00;28.50;;;;;19.73;52.39;101603.94;5039890;28;45408;-78
2022/05/10 02:43:40;;;;;;;;;36.00;31.50;;;;;19.74;52.58;101605.66;5040659;28;45372;-77
2022/05/10 02:46:05;;;;;;;;;32.00;27.50;;;;;19.75;52.44;101607.34;5040807;28;46296;-78
2022/05/10 02:48:34;;;;;;;;;31.50;29.75;;;;;19.77;52.06;101604.63;5040928;28;45259;-79
2022/05/10 02:50:59;;;;;;;;;35.75;30.75;;;;;19.75;52.04;101599.44;5041281;28;45479;-80
2022/05/10 02:53:26;;;;;;;;;29.50;26.25;;;;;19.77;52.67;101598.50;5039148;28;45534;-77
2022/05/10 02:56:04;;;;;;;;;35.50;30.25;;;;;19.77;52.14;101596.72;5041270;28;45589;-82
2022/05/10 02:58:45;;;;;;;;;32.00;28.25;;;;;19.78;52.46;101592.28;5041099;28;45814;-77
2022/05/10 03:01:23;;;;;;;;;33.75;28.00;;;;;19.78;52.82;101595.78;5040802;28;45265;-75
2022/05/10 03:03:49;;;;;;;;;33.00;28.75;;;;;19.77;52.60;101591.44;5028794;28;45442;-74
2022/05/10 03:06:17;;;;;;;;;27.50;26.00;;;;;19.79;52.22;101586.94;5040318;28;45468;-75
2022/05/10 03:08:44;;;;;;;;;31.50;29.75;;;;;19.79;52.42;101586.09;5041754;28;45326;-76
2022/05/10 03:11:09;;;;;;;;;28.50;26.50;;;;;19.83;52.15;101585.88;5044918;28;45291;-74
2022/05/10 03:13:35;;;;;;;;;33.75;28.00;;;;;19.85;52.60;101591.06;5040080;28;45322;-73
2022/05/10 03:16:01;;;;;;;;;30.50;26.00;;;;;19.87;52.48;101584.78;5040142;28;45402;-73
2022/05/10 03:18:27;;;;;;;;;27.25;25.50;;;;;19.88;52.53;101582.97;5039750;28;45353;-74
2022/05/10 03:20:52;;;;;;;;;28.25;26.25;;;;;19.88;52.88;101581.19;5040253;28;45335;-75
2022/05/10 03:23:18;;;;;;;;;36.00;29.50;;;;;19.87;52.86;101576.84;5040045;28;45347;-77
2022/05/10 03:25:43;;;;;;;;;35.50;28.00;;;;;19.86;52.52;101575.16;5039020;28;46083;-77
2022/05/10 03:28:09;;;;;;;;;29.75;26.25;;;;;19.88;52.55;101572.44;5040018;28;45324;-78
2022/05/10 03:30:34;;;;;;;;;26.75;25.75;;;;;19.87;52.42;101570.72;5040386;28;45367;-77
2022/05/10 03:33:00;;;;;;;;;28.50;27.50;;;;;19.87;52.17;101568.09;5040157;28;45174;-77
2022/05/10 03:35:25;;;;;;;;;29.00;25.75;;;;;19.85;52.58;101564.69;5039894;28;45602;-77
2022/05/10 03:37:51;;;;;;;;;31.50;29.25;;;;;19.87;52.07;101560.19;5039881;28;45303;-76
2022/05/10 03:40:16;;;;;;;;;20.75;18.00;;;;;19.89;52.44;101567.06;5039927;28;45422;-74
2022/05/10 03:42:45;;;;;;;;;25.25;23.75;;;;;19.88;52.46;101567.16;5039978;28;45264;-74
2022/05/10 03:45:12;;;;;;;;;29.50;27.00;;;;;19.90;51.75;101555.59;5039497;28;45547;-69
2022/05/10 03:47:37;;;;;;;;;27.25;25.00;;;;;19.91;52.22;101561.72;5040168;28;45355;-69
2022/05/10 03:50:04;;;;;;;;;30.00;22.75;;;;;19.90;51.67;101552.94;5039926;28;45362;-69
2022/05/10 03:52:30;;;;;;;;;28.50;25.75;;;;;19.90;51.67;101558.22;5040195;28;45584;-71
2022/05/10 03:54:55;;;;;;;;;27.50;24.75;;;;;19.90;51.73;101552.94;5039406;28;45492;-73
2022/05/10 03:57:21;;;;;;;;;26.50;24.50;;;;;19.93;51.72;101552.78;5038392;28;45337;-74
2022/05/10 03:59:46;;;;;;;;;24.00;24.00;;;;;19.93;51.63;101541.38;5040397;28;45268;-75
2022/05/10 04:02:13;;;;;;;;;31.25;29.50;;;;;19.95;51.43;101550.06;5039637;28;45585;-75
2022/05/10 04:04:40;;;;;;;;;31.00;25.50;;;;;19.98;51.63;101557.78;5039518;28;45270;-74
2022/05/10 04:07:06;;;;;;;;;25.25;23.00;;;;;19.98;51.86;101555.16;5039416;28;45410;-74
2022/05/10 04:09:32;;;;;;;;;23.00;21.00;;;;;19.98;51.78;101540.19;5043939;28;45270;-74
2022/05/10 04:11:58;;;;;;;;;29.50;25.25;;;;;20.01;51.42;101544.44;5037342;28;45403;-73
2022/05/10 04:14:24;;;;;;;;;26.25;23.50;;;;;20.02;51.27;101548.78;5039106;28;46306;-73
2022/05/10 04:16:49;;;;;;;;;27.00;22.25;;;;;20.03;51.24;101542.59;5031899;28;45253;-76
2022/05/10 04:19:14;;;;;;;;;30.75;25.00;;;;;20.04;50.81;101547.78;5039726;28;45266;-75
2022/05/10 04:21:40;;;;;;;;;23.25;23.00;;;;;20.05;50.96;101548.63;5039291;28;45769;-75
2022/05/10 04:24:05;;;;;;;;;24.75;21.00;;;;;20.09;50.75;101554.59;5039250;28;45380;-77
2022/05/10 04:26:31;;;;;;;;;25.00;23.25;;;;;20.09;50.61;101544.03;5039075;28;45296;-74
2022/05/10 04:28:57;;;;;;;;;20.25;19.00;;;;;20.10;50.07;101551.88;5039891;28;45266;-75
2022/05/10 04:31:23;;;;;;;;;26.25;24.25;;;;;20.11;50.24;101547.44;5042865;28;45770;-78
2022/05/10 04:33:48;;;;;;;;;25.00;24.00;;;;;20.14;50.43;101547.28;5042757;28;45276;-79
2022/05/10 04:36:13;;;;;;;;;21.50;21.00;;;;;20.16;49.99;101540.97;5042915;28;45142;-79
2022/05/10 04:38:39;;;;;;;;;27.00;25.25;;;;;20.18;49.89;101532.97;5043258;28;45531;-77
2022/05/10 04:43:49;;;;;;;;;21.00;20.50;;;;;20.22;49.86;101535.38;5042091;28;45678;-76
2022/05/10 04:46:14;;;;;;;;;24.25;21.75;;;;;20.26;49.69;101547.47;5042522;28;45297;-77
2022/05/10 04:48:39;;;;;;;;;26.75;25.75;;;;;20.29;49.59;101552.56;5042699;28;45387;-77
2022/05/10 04:51:05;;;;;;;;;25.50;23.25;;;;;20.31;49.46;101541.94;5043123;28;45429;-76
2022/05/10 04:53:31;;;;;;;;;22.75;22.00;;;;;20.34;49.32;101549.66;5042556;28;46338;-76
2022/05/10 04:55:57;;;;;;;;;22.00;21.00;;;;;20.39;49.57;101552.06;5042045;28;45339;-77
2022/05/10 04:58:22;;;;;;;;;30.50;26.75;;;;;20.41;49.19;101552.84;5042105;28;45406;-75
2022/05/10 05:00:48;;;;;;;;;24.75;21.00;;;;;20.43;49.34;101548.34;5042464;28;45400;-75
2022/05/10 05:03:13;;;;;;;;;22.25;22.25;;;;;20.45;49.24;101546.47;5042100;28;46187;-74
2022/05/10 05:05:38;;;;;;;;;27.00;23.00;;;;;20.50;49.00;101560.28;5042177;28;45291;-76
2022/05/10 05:08:04;;;;;;;;;23.50;21.25;;;;;20.52;49.18;101553.09;5042206;28;45335;-75
2022/05/10 05:10:30;;;;;;;;;30.25;24.00;;;;;20.53;48.83;101553.03;5048815;28;45260;-76
2022/05/10 05:12:56;;;;;;;;;24.75;22.00;;;;;20.53;49.04;101552.16;5041586;28;45474;-75
2022/05/10 05:15:21;;;;;;;;;26.25;23.75;;;;;20.54;48.95;101557.38;5042236;28;45277;-75
2022/05/10 05:17:46;;;;;;;;;25.25;19.75;;;;;20.54;49.02;101552.09;5042134;28;45263;-75
2022/05/10 05:20:12;;;;;;;;;23.75;23.50;;;;;20.57;48.75;101557.19;5041891;28;45208;-73
2022/05/10 05:22:38;;;;;;;;;24.50;21.75;;;;;20.59;48.69;101565.88;5041117;28;45454;-72
2022/05/10 05:25:05;;;;;;;;;22.75;22.50;;;;;20.61;48.84;101558.72;5041636;28;45753;-72
2022/05/10 05:27:31;;;;;;;;;23.00;20.00;;;;;20.61;48.77;101561.34;5041424;28;45449;-73
2022/05/10 05:29:56;;;;;;;;;25.25;23.50;;;;;20.65;48.53;101557.63;5041894;28;45430;-72
2022/05/10 05:32:28;;;;;;;;;24.50;23.00;;;;;20.65;48.12;101560.28;5041397;28;46442;-71
2022/05/10 05:34:54;;;;;;;;;19.75;19.75;;;;;20.68;48.61;101564.53;5041987;28;45224;-71
2022/05/10 05:37:37;;;;;;;;;23.50;20.75;;;;;20.68;48.12;101561.88;5041348;28;45363;-72
2022/05/10 05:40:16;;;;;;;;;24.50;21.00;;;;;20.72;48.35;101573.13;5039870;28;46001;-72
2022/05/10 05:42:42;;;;;;;;;23.00;22.00;;;;;20.74;48.00;101561.53;5040779;28;45362;-72
2022/05/10 05:45:10;;;;;;;;;21.75;19.00;;;;;20.76;47.90;101564.06;5039336;28;45951;-72
2022/05/10 05:47:36;;;;;;;;;20.50;19.00;;;;;20.78;48.06;101564.84;5041558;28;45337;-70
2022/05/10 05:50:05;;;;;;;;;21.25;20.25;;;;;20.81;47.61;101562.00;5040994;28;45516;-75
2022/05/10 05:52:30;;;;;;;;;24.25;20.50;;;;;20.83;47.67;101565.44;5041082;28;46393;-73
2022/05/10 05:54:55;;;;;;;;;19.75;19.75;;;;;20.86;47.79;101565.28;5040621;28;45681;-70
2022/05/10 05:57:22;;;;;;;;;22.75;19.25;;;;;20.91;47.58;101561.41;5040519;28;45266;-75
2022/05/10 05:59:48;;;;;;;;;22.50;20.75;;;;;21.01;47.36;101569.66;5041335;28;45454;-73
2022/05/10 06:02:17;;;;;;;;;27.75;25.00;;;;;21.08;47.48;101570.16;5040773;28;45450;-76
2022/05/10 06:04:43;;;;;;;;;21.50;16.50;;;;;21.15;47.13;101571.50;5040812;28;45898;-71
2022/05/10 06:07:13;;;;;;;;;26.00;20.50;;;;;21.18;46.90;101558.94;5041182;28;45174;-69
2022/05/10 06:09:43;;;;;;;;;22.75;19.00;;;;;21.24;46.98;101568.38;5045375;28;45492;-78
2022/05/10 06:12:12;;;;;;;;;22.00;19.75;;;;;21.30;47.14;101569.78;5040471;28;46379;-74
2022/05/10 06:14:38;;;;;;;;;22.75;21.00;;;;;21.38;46.76;101562.25;5040635;28;45908;-76
2022/05/10 06:17:04;;;;;;;;;21.25;21.25;;;;;21.45;46.25;101571.53;5041283;28;45332;-76
2022/05/10 06:19:30;;;;;;;;;19.25;19.00;;;;;21.46;46.41;101567.94;5040135;28;45506;-72
2022/05/10 06:21:56;;;;;;;;;20.75;19.25;;;;;21.51;46.33;101569.34;5040224;28;46462;-69
2022/05/10 06:24:25;;;;;;;;;22.75;20.25;;;;;21.61;46.15;101564.34;5040557;28;45804;-71
2022/05/10 06:26:51;;;;;;;;;28.25;23.00;;;;;21.72;45.95;101579.59;5040659;28;45409;-70
2022/05/10 06:29:16;;;;;;;;;24.00;20.25;;;;;21.82;46.06;101559.53;5040541;28;45311;-74
2022/05/10 06:31:43;;;;;;;;;24.25;23.00;;;;;21.89;45.75;101563.53;5040728;28;45531;-74
2022/05/10 06:34:09;;;;;;;;;21.00;20.00;;;;;22.01;45.44;101567.19;5040412;28;45403;-73
2022/05/10 06:36:35;;;;;;;;;21.75;21.75;;;;;22.06;45.33;101559.88;5040544;28;45429;-74
2022/05/10 06:39:00;;;;;;;;;21.50;20.00;;;;;22.15;45.51;101559.28;5040254;28;46436;-74
2022/05/10 06:41:26;;;;;;;;;19.00;18.50;;;;;22.23;45.27;101553.53;5040486;28;46514;-74
2022/05/10 06:43:51;;;;;;;;;21.75;20.00;;;;;22.31;44.81;101559.16;5040755;28;45275;-73
2022/05/10 06:46:20;;;;;;;;;18.50;18.50;;;;;22.33;44.65;101554.63;5041058;28;45474;-73
2022/05/10 06:48:46;;;;;;;;;35.25;23.75;;;;;22.38;44.31;101556.03;5040276;28;45478;-73
2022/05/10 06:51:14;;;;;;;;;23.00;20.50;;;;;22.46;44.60;101567.00;5039364;28;46195;-74
2022/05/10 06:53:40;;;;;;;;;23.25;20.50;;;;;22.52;44.36;101559.59;5039834;28;45593;-73
2022/05/10 06:56:07;;;;;;;;;26.75;23.00;;;;;22.56;44.07;101564.59;5039984;28;45599;-74
2022/05/10 06:58:32;;;;;;;;;23.50;20.25;;;;;22.63;44.05;101565.91;5039092;28;45427;-73
2022/05/10 07:00:58;;;;;;;;;25.50;22.25;;;;;22.69;43.68;101557.56;5039667;28;45421;-73
2022/05/10 07:03:34;;;;;;;;;19.00;17.50;;;;;22.64;43.61;101556.16;5039315;28;45542;-71
2022/05/10 07:06:01;;;;;;;;;17.75;16.75;;;;;22.66;43.64;101554.25;5037305;28;45278;-73
2022/05/10 07:08:27;;;;;;;;;16.50;14.50;;;;;22.68;43.71;101545.25;5039131;28;45455;-73
2022/05/10 07:10:54;;;;;;;;;22.50;18.50;;;;;22.75;43.72;101549.19;5038986;28;45410;-73
2022/05/10 07:13:23;;;;;;;;;24.25;22.25;;;;;22.85;43.69;101544.19;5039006;28;46502;-74
2022/05/10 07:15:48;;;;;;;;;19.00;17.75;;;;;22.94;43.70;101550.66;5039541;28;45428;-69
2022/05/10 07:18:14;;;;;;;;;23.00;20.75;;;;;22.96;43.09;101546.09;5039776;28;45252;-68
2022/05/10 07:20:41;;;;;;;;;22.75;19.50;;;;;22.94;43.35;101551.50;5038586;28;47311;-68
2022/05/10 07:23:07;;;;;;;;;20.75;18.00;;;;;22.92;43.22;101539.31;5038846;28;45375;-67
2022/05/10 07:25:32;;;;;;;;;22.00;21.25;;;;;22.93;43.28;101543.66;5039778;28;45319;-65
2022/05/10 07:27:58;;;;;;;;;21.75;20.75;;;;;22.95;43.14;101544.41;5038383;28;45337;-67
2022/05/10 07:30:25;;;;;;;;;20.00;17.50;;;;;22.97;43.44;101543.34;5039935;28;45502;-70
2022/05/10 07:32:51;;;;;;;;;21.50;19.00;;;;;22.99;43.02;101557.34;5039578;28;45234;-67
2022/05/10 07:36:23;;;;;;;;;20.25;17.50;;;;;23.01;43.04;101541.34;5039887;28;45169;-67
2022/05/10 07:38:05;;;;;;;;;20.25;18.25;;;;;23.09;43.04;101548.81;5028624;28;45650;-68
2022/05/10 07:40:31;;;;;;;;;18.50;17.75;;;;;23.13;43.19;101543.19;5038259;28;47456;-67
2022/05/10 07:42:56;;;;;;;;;15.00;14.50;;;;;23.17;43.31;101549.97;5039628;28;45327;-65
2022/05/10 07:45:22;;;;;;;;;19.25;18.25;;;;;23.19;43.54;101545.41;5039493;28;45308;-65
2022/05/10 07:47:47;;;;;;;;;23.25;17.25;;;;;23.22;44.07;101542.56;5039731;28;45434;-66
2022/05/10 07:50:12;;;;;;;;;18.75;17.50;;;;;23.23;43.57;101548.72;5039349;28;45356;-64
2022/05/10 07:52:40;;;;;;;;;19.00;17.75;;;;;23.26;44.38;101543.22;5039566;28;45241;-64
2022/05/10 07:55:07;;;;;;;;;21.50;18.75;;;;;23.34;44.00;101541.72;5039571;28;45431;-65
2022/05/10 07:57:33;;;;;;;;;20.50;18.75;;;;;23.52;44.11;101544.06;5038737;28;46138;-65
2022/05/10 07:59:58;;;;;;;;;20.25;16.25;;;;;23.81;43.08;101542.06;5039457;28;45456;-65
2022/05/10 08:02:24;;;;;;;;;15.50;15.50;;;;;24.09;42.54;101538.31;5039564;28;45182;-71
2022/05/10 08:04:49;;;;;;;;;16.75;16.25;;;;;24.31;41.99;101537.66;5038525;28;45468;-69
2022/05/10 08:07:14;;;;;;;;;17.75;15.75;;;;;24.49;41.13;101547.78;5039091;28;45613;-67
2022/05/10 08:09:40;;;;;;;;;19.75;16.00;;;;;24.64;41.12;101550.31;5045053;28;45612;-68
2022/05/10 08:12:05;;;;;;;;;17.25;16.50;;;;;24.68;40.97;101546.44;5039135;28;45350;-69
2022/05/10 08:14:31;;;;;;;;;16.25;16.25;;;;;24.66;41.25;101541.25;5039261;28;45408;-68
2022/05/10 08:16:56;;;;;;;;;16.50;15.00;;;;;24.63;40.96;101546.78;5039243;28;45324;-68
2022/05/10 08:19:21;;;;;;;;;18.25;17.50;;;;;24.69;40.76;101537.50;5038776;28;46169;-68
2022/05/10 08:21:47;;;;;;;;;17.50;15.75;;;;;24.68;39.73;101549.94;5038809;28;45577;-68
2022/05/10 08:24:12;;;;;;;;;19.75;16.50;;;;;24.70;40.36;101555.16;5038855;28;45481;-68
2022/05/10 08:26:38;;;;;;;;;20.50;17.75;;;;;24.75;40.50;101555.66;5039424;28;45315;-68
2022/05/10 08:29:03;;;;;;;;;21.00;15.50;;;;;24.77;40.74;101557.22;5037784;28;47420;-69
2022/05/10 08:31:28;;;;;;;;;19.25;16.25;;;;;24.80;39.41;101557.00;5039488;28;45295;-69
2022/05/10 08:33:54;;;;;;;;;20.00;17.25;;;;;24.84;40.11;101558.50;5039095;28;45505;-67
2022/05/10 08:36:19;;;;;;;;;19.25;17.00;;;;;25.01;40.46;101554.59;5039022;28;45503;-67
2022/05/10 08:38:45;;;;;;;;;20.00;17.00;;;;;25.13;40.22;101556.31;5038298;28;45438;-68
2022/05/10 08:41:26;;;;;;;;;20.75;18.25;;;;;25.25;39.73;101545.72;5038743;28;45640;-68
2022/05/10 08:44:00;;;;;;;;;19.00;15.75;;;;;25.27;39.60;101541.97;5038513;28;45276;-68
2022/05/10 08:46:30;;;;;;;;;18.00;16.25;;;;;25.32;39.59;101547.78;5029747;28;45313;-67
2022/05/10 08:49:10;;;;;;;;;19.75;15.75;;;;;25.38;39.09;101547.31;5038600;28;46412;-68
2022/05/10 08:51:36;;;;;;;;;17.50;15.25;;;;;25.44;38.78;101540.69;5038766;28;45397;-67
2022/05/10 08:54:02;;;;;;;;;17.25;16.25;;;;;25.55;39.30;101540.69;5038939;28;45463;-67
2022/05/10 08:56:32;;;;;;;;;18.75;16.75;;;;;25.69;38.54;101540.50;5038674;28;45362;-67
2022/05/10 08:59:24;;;;;;;;;23.00;16.75;;;;;25.79;38.58;101543.28;5038657;28;46274;-67
2022/05/10 09:01:57;;;;;;;;;17.25;14.00;;;;;25.91;38.33;101546.78;5038522;28;45611;-68
2022/05/10 09:04:31;;;;;;;;;18.00;16.00;;;;;26.05;37.98;101544.75;5038938;28;45331;-68
2022/05/10 09:07:12;;;;;;;;;16.50;14.25;;;;;26.26;37.34;101538.66;5038272;28;45481;-68
2022/05/10 09:09:59;;;;;;;;;17.00;17.00;;;;;26.40;37.10;101532.22;5045766;28;45538;-68
2022/05/10 09:12:25;;;;;;;;;27.75;24.50;;;;;26.72;38.08;101533.09;5041653;28;45253;-66
2022/05/10 09:15:01;;;;;;;;;23.50;18.50;;;;;27.13;37.25;101537.66;5041056;28;45479;-68
2022/05/10 09:17:29;;;;;;;;;25.75;21.75;;;;;27.47;36.50;101535.63;5042158;28;45542;-67
2022/05/10 09:19:55;;;;;;;;;25.75;23.00;;;;;27.68;35.76;101537.44;5041670;28;45548;-67
2022/05/10 09:22:53;;;;;;;;;19.75;15.75;;;;;27.80;35.77;101539.03;5041581;28;45302;-67
2022/05/10 09:25:35;;;;;;;;;22.50;17.00;;;;;27.79;35.06;101530.19;5032001;28;45233;-66
2022/05/10 09:28:38;;;;;;;;;17.50;15.25;;;;;27.81;35.01;101528.22;5041767;28;46331;-65
2022/05/10 09:37:28;;;;;;;;;15.50;12.50;;;;;27.77;33.84;101523.28;5041371;28;45391;-66
2022/05/10 09:39:56;;;;;;;;;23.75;21.50;;;;;27.87;33.86;101534.88;5031867;28;45282;-68
2022/05/10 09:42:35;;;;;;;;;15.75;14.25;;;;;27.72;33.26;101528.19;5040995;28;45457;-67
2022/05/10 09:45:25;;;;;;;;;18.50;16.00;;;;;27.64;33.91;101514.66;5041163;28;45566;-67
2022/05/10 09:48:02;;;;;;;;;36.00;32.50;;;;;27.68;34.11;101513.41;5041473;28;45326;-69
2022/05/10 09:50:30;;;;;;;;;14.00;13.00;;;;;27.71;33.92;101521.16;5041651;28;45521;-67
2022/05/10 09:53:20;;;;;;;;;22.75;16.25;;;;;27.68;33.98;101519.59;5041490;28;46181;-66
2022/05/10 09:56:00;;;;;;;;;19.50;17.25;;;;;27.70;34.02;101514.13;5028754;28;45324;-66
2022/05/10 09:58:41;;;;;;;;;13.75;13.00;;;;;27.65;33.98;101506.53;5041124;28;45425;-67
2022/05/10 10:01:11;;;;;;;;;16.50;16.50;;;;;27.72;33.44;101499.66;5039333;28;45410;-66
2022/05/10 10:03:42;;;;;;;;;30.00;25.25;;;;;27.81;33.74;101498.81;5039649;28;46177;-66
2022/05/10 10:06:19;;;;;;;;;17.50;15.00;;;;;27.87;33.40;101509.00;5038970;28;45351;-66
2022/05/10 10:08:53;;;;;;;;;18.00;15.25;;;;;27.78;33.60;101503.59;5042445;28;45446;-65
2022/05/10 10:11:21;;;;;;;;;16.25;13.00;;;;;27.63;32.83;101510.28;5044105;28;45547;-66
2022/05/10 10:13:56;;;;;;;;;17.25;12.75;;;;;27.41;32.93;101498.75;5039806;28;45702;-73
2022/05/10 10:16:30;;;;;;;;;15.25;15.00;;;;;27.24;33.77;101502.06;5040291;28;45523;-66
2022/05/10 10:19:04;;;;;;;;;20.00;19.25;;;;;27.21;34.07;101505.81;5041021;28;45377;-65
2022/05/10 10:21:38;;;;;;;;;29.75;24.75;;;;;27.26;34.71;101500.09;5040300;28;45329;-64
2022/05/10 10:24:04;;;;;;;;;15.25;15.25;;;;;27.21;33.67;101494.28;5040521;28;45480;-64
2022/05/10 10:27:02;;;;;;;;;14.00;10.50;;;;;27.23;32.85;101500.34;5038811;28;45688;-64
2022/05/10 10:29:33;;;;;;;;;14.00;13.00;;;;;27.20;33.42;101501.44;5007189;28;45260;-68
2022/05/10 10:32:06;;;;;;;;;6.50;6.50;;;;;27.21;32.70;101510.31;5038642;28;45655;-70
2022/05/10 10:34:47;;;;;;;;;14.75;10.75;;;;;27.22;33.16;101506.66;5038526;28;48124;-70
2022/05/10 10:37:23;;;;;;;;;12.50;12.50;;;;;27.33;32.85;101498.59;5040150;28;45760;-68
2022/05/10 10:40:12;;;;;;;;;10.25;10.25;;;;;27.39;32.96;101502.53;5040140;28;45280;-72
2022/05/10 10:43:16;;;;;;;;;13.75;12.00;;;;;27.40;33.26;101501.56;5039810;28;45390;-72
2022/05/10 10:45:46;;;;;;;;;13.50;13.50;;;;;27.49;32.55;101488.28;5017342;28;45682;-72
2022/05/10 10:48:46;;;;;;;;;12.25;10.75;;;;;27.62;32.39;101498.72;5040261;28;45568;-72
2022/05/10 10:51:12;;;;;;;;;16.50;15.00;;;;;27.72;31.52;101505.00;5031156;28;45305;-71
2022/05/10 10:53:39;;;;;;;;;30.00;16.50;;;;;27.72;31.46;101498.81;5039514;28;45422;-70
2022/05/10 10:56:20;;;;;;;;;14.50;10.25;;;;;27.74;31.20;101497.69;5039645;28;45420;-71
2022/05/10 10:59:04;;;;;;;;;13.75;10.75;;;;;27.81;31.36;101497.97;5071717;27;45356;-71
2022/05/10 11:01:35;;;;;;;;;13.25;11.00;;;;;27.73;30.94;101495.16;5040342;28;45498;-67
2022/05/10 11:04:18;;;;;;;;;12.50;11.75;;;;;27.75;31.33;101499.38;5040004;28;45510;-71
2022/05/10 11:06:54;;;;;;;;;13.00;13.00;;;;;27.85;31.63;101480.72;5039622;28;45375;-71
2022/05/10 11:09:47;;;;;;;;;13.00;11.75;;;;;28.06;31.09;101481.47;5045511;28;45366;-71
2022/05/10 11:12:21;;;;;;;;;15.75;14.00;;;;;28.31;31.26;101473.94;5039799;28;45315;-70
2022/05/10 11:15:12;;;;;;;;;12.25;12.25;;;;;28.43;31.15;101472.81;5039606;28;46461;-70
2022/05/10 11:17:52;;;;;;;;;14.00;12.25;;;;;28.47;31.01;101463.56;5040021;28;45403;-70
2022/05/10 11:20:36;;;;;;;;;16.50;12.50;;;;;28.49;30.92;101466.94;5038903;28;46023;-69
2022/05/10 11:23:06;;;;;;;;;11.50;11.50;;;;;28.51;30.25;101448.91;5039659;28;45300;-69
2022/05/10 11:25:43;;;;;;;;;13.00;11.00;;;;;28.63;30.15;101454.94;5039987;28;45453;-71
2022/05/10 11:28:27;;;;;;;;;13.25;11.50;;;;;28.80;30.55;101459.56;5052812;28;45512;-71
2022/05/10 11:31:08;;;;;;;;;11.75;11.75;;;;;29.03;30.79;101449.41;5036523;28;45316;-70
2022/05/10 11:33:37;;;;;;;;;9.25;8.25;;;;;29.21;29.82;101470.94;5032856;28;45526;-71
2022/05/10 11:36:30;;;;;;;;;13.50;12.75;;;;;29.21;29.58;101461.06;5039622;28;45304;-70
2022/05/10 11:38:59;;;;;;;;;10.00;10.00;;;;;29.12;29.97;101459.28;5039091;28;46444;-67